Time;durP1;ratioP1;P1;durP2;ratioP2;P2;SDS_P1;SDS_P2;PMS_P1;PMS_P2;Temp;Humidity;BMP_temperature;BMP_pressure;BME280_temperature;BME280_humidity;BME280_pressure;Samples;Min_cycle;Max_cycle;Signal;HPM_P1;HPM_P2
2022/05/31 00:01:50;;;;;;;2.63;2.05;;;;;;;10.91;72.31;101505.06;5077537;28;20032;-75
2022/05/31 00:04:16;;;;;;;2.40;1.60;;;;;;;10.89;72.54;101512.06;5058892;28;20027;-75
2022/05/31 00:06:43;;;;;;;1.88;1.60;;;;;;;10.87;72.55;101507.81;5076794;28;20044;-75
2022/05/31 00:09:08;;;;;;;1.80;1.58;;;;;;;10.85;72.29;101507.84;5056889;28;20048;-75
2022/05/31 00:11:35;;;;;;;3.20;1.85;;;;;;;10.84;72.37;101500.91;5059056;28;20278;-75
2022/05/31 00:14:01;;;;;;;4.50;2.20;;;;;;;10.82;72.24;101502.69;5072022;28;20052;-75
2022/05/31 00:16:27;;;;;;;5.75;2.20;;;;;;;10.80;72.09;101501.88;5073183;28;20047;-75
2022/05/31 00:18:52;;;;;;;2.55;1.73;;;;;;;10.78;72.29;101505.47;5075888;28;20043;-75
2022/05/31 00:21:17;;;;;;;2.28;1.83;;;;;;;10.77;72.48;101507.25;5074960;28;20032;-75
2022/05/31 00:23:43;;;;;;;5.80;1.90;;;;;;;10.75;72.33;101501.16;5073881;28;20033;-75
2022/05/31 00:26:08;;;;;;;2.45;2.08;;;;;;;10.73;72.17;101498.63;5076710;28;20400;-75
2022/05/31 00:28:34;;;;;;;1.77;1.67;;;;;;;10.71;72.51;101503.06;5074840;28;20355;-75
2022/05/31 00:30:59;;;;;;;1.80;1.65;;;;;;;10.70;72.59;101501.31;5074348;28;20419;-75
2022/05/31 00:33:26;;;;;;;1.90;1.80;;;;;;;10.69;72.44;101502.22;5058952;28;20251;-75
2022/05/31 00:35:53;;;;;;;4.65;2.28;;;;;;;10.67;72.57;101504.03;5076733;28;20036;-75
2022/05/31 00:38:20;;;;;;;3.10;2.10;;;;;;;10.66;72.70;101498.81;5045604;28;20493;-75
2022/05/31 00:40:46;;;;;;;2.33;2.00;;;;;;;10.64;72.37;101496.28;5077119;28;20308;-75
2022/05/31 00:43:16;;;;;;;2.47;2.28;;;;;;;10.62;72.73;101492.81;5076016;28;20032;-75
2022/05/31 00:45:49;;;;;;;3.15;2.00;;;;;;;10.62;72.71;101491.97;5076609;28;20098;-76
2022/05/31 00:48:37;;;;;;;2.17;1.85;;;;;;;10.60;72.84;101493.78;5058467;28;20035;-75
2022/05/31 00:51:13;;;;;;;3.13;1.98;;;;;;;10.59;72.76;101489.44;5075535;28;20123;-75
2022/05/31 00:53:43;;;;;;;1.80;1.70;;;;;;;10.57;72.61;101497.38;5076303;28;20263;-75
2022/05/31 00:56:20;;;;;;;2.85;2.17;;;;;;;10.55;72.85;101492.16;5072977;28;20086;-75
2022/05/31 00:59:09;;;;;;;2.63;2.38;;;;;;;10.54;73.03;101494.84;5074689;28;20059;-75
2022/05/31 01:04:53;;;;;;;2.13;1.90;;;;;;;10.51;73.11;101482.69;5064528;28;20044;-75
2022/05/31 01:07:19;;;;;;;;;;;;;;;10.48;72.95;101484.56;5069850;28;20039;-75
2022/05/31 01:09:45;;;;;;;2.00;1.80;;;;;;;10.47;73.13;101482.81;5075878;28;19916;-75
2022/05/31 01:12:12;;;;;;;3.08;2.08;;;;;;;10.45;72.96;101488.09;5055613;28;20048;-75
2022/05/31 01:14:38;;;;;;;3.05;2.20;;;;;;;10.44;73.17;101490.75;5076368;28;20040;-75
2022/05/31 01:17:12;;;;;;;2.45;2.13;;;;;;;10.44;73.04;101485.53;5075730;28;20064;-75
2022/05/31 01:22:23;;;;;;;4.40;2.20;;;;;;;10.41;73.11;101486.47;5075644;28;20044;-75
2022/05/31 01:25:21;;;;;;;3.10;2.90;;;;;;;10.40;73.31;101490.00;5058266;28;20039;-75
2022/05/31 01:28:00;;;;;;;2.38;2.08;;;;;;;10.40;73.32;101484.75;5057244;28;20052;-75
2022/05/31 01:30:30;;;;;;;4.15;2.45;;;;;;;10.38;73.28;101487.41;5072322;28;20071;-75
2022/05/31 01:33:35;;;;;;;4.50;2.20;;;;;;;10.38;73.26;101486.56;5076689;28;20036;-75
2022/05/31 01:36:08;;;;;;;3.58;2.65;;;;;;;10.35;73.56;101479.66;5072389;28;20040;-75
2022/05/31 01:38:41;;;;;;;2.47;2.28;;;;;;;10.34;73.46;101485.81;5075940;28;20040;-75
2022/05/31 01:41:23;;;;;;;2.45;2.10;;;;;;;10.34;73.42;101487.56;5075836;28;20067;-75
2022/05/31 01:43:51;;;;;;;2.88;2.60;;;;;;;10.32;73.51;101481.53;5075762;28;20040;-75
2022/05/31 01:46:24;;;;;;;3.05;2.50;;;;;;;10.30;73.56;101481.53;5075203;28;20217;-75
2022/05/31 01:48:50;;;;;;;3.00;2.15;;;;;;;10.30;73.59;101484.16;5066926;28;20024;-75
2022/05/31 01:51:16;;;;;;;2.67;2.10;;;;;;;10.28;73.56;101487.72;5078496;28;20264;-75
2022/05/31 01:53:41;;;;;;;2.55;2.35;;;;;;;10.26;73.67;101479.91;5058369;28;20648;-75
2022/05/31 01:56:09;;;;;;;3.08;2.58;;;;;;;10.25;73.75;101477.34;5075826;28;20043;-75
2022/05/31 01:58:38;;;;;;;3.20;2.38;;;;;;;10.24;73.83;101481.72;5061567;28;20069;-75
2022/05/31 02:01:03;;;;;;;2.92;2.50;;;;;;;10.23;73.78;101481.75;5071243;28;20060;-74
2022/05/31 02:03:31;;;;;;;3.92;2.53;;;;;;;10.22;73.74;101475.66;5079228;28;20241;-75
2022/05/31 02:05:57;;;;;;;2.78;2.58;;;;;;;10.21;73.68;101479.19;5062017;28;20032;-75
2022/05/31 02:08:25;;;;;;;3.13;2.55;;;;;;;10.19;73.88;101470.53;5079106;28;20086;-75
2022/05/31 02:10:51;;;;;;;2.70;2.50;;;;;;;10.18;73.93;101469.63;5059266;28;20072;-75
2022/05/31 02:13:18;;;;;;;2.72;2.53;;;;;;;10.18;73.91;101464.41;5075667;28;20036;-75
2022/05/31 02:15:43;;;;;;;4.63;2.88;;;;;;;10.17;73.95;101470.56;5079478;28;20039;-75
2022/05/31 02:18:12;;;;;;;4.07;2.35;;;;;;;10.15;73.82;101466.25;5079307;28;20036;-75
2022/05/31 02:20:38;;;;;;;2.28;2.17;;;;;;;10.14;73.90;101468.03;5079362;28;20064;-75
2022/05/31 02:23:03;;;;;;;2.33;2.22;;;;;;;10.13;73.74;101466.31;5079361;28;20324;-74
2022/05/31 02:25:28;;;;;;;2.70;2.50;;;;;;;10.13;73.98;101468.06;5079332;28;20044;-75
2022/05/31 02:27:54;;;;;;;3.08;2.85;;;;;;;10.12;74.06;101467.22;5062138;28;20280;-75
2022/05/31 02:30:19;;;;;;;2.63;2.50;;;;;;;10.11;74.01;101467.25;5078484;28;20230;-75
2022/05/31 02:32:44;;;;;;;3.75;2.65;;;;;;;10.11;74.10;101468.09;5079969;28;20032;-77
2022/05/31 02:35:10;;;;;;;2.95;2.75;;;;;;;10.10;74.04;101466.41;5045149;28;20276;-77
2022/05/31 02:37:37;;;;;;;3.45;2.88;;;;;;;10.09;74.05;101469.91;5062018;28;20043;-77
2022/05/31 02:40:04;;;;;;;4.63;3.08;;;;;;;10.09;74.21;101463.81;5079673;28;20047;-77
2022/05/31 02:42:29;;;;;;;4.03;2.97;;;;;;;10.07;74.10;101463.88;5079602;28;20415;-77
2022/05/31 02:44:54;;;;;;;3.42;3.22;;;;;;;10.07;74.14;101463.88;5061780;28;20066;-77
2022/05/31 02:47:21;;;;;;;5.00;3.78;;;;;;;10.07;74.33;101460.41;5078950;28;20090;-77
2022/05/31 02:49:47;;;;;;;3.65;3.33;;;;;;;10.07;74.52;101457.78;5079693;28;20032;-77
2022/05/31 02:52:12;;;;;;;4.90;3.53;;;;;;;10.06;74.32;101459.56;5076386;28;20089;-77
2022/05/31 02:54:38;;;;;;;3.35;3.10;;;;;;;10.06;74.20;101458.66;5079468;28;20032;-77
2022/05/31 02:57:04;;;;;;;3.80;3.50;;;;;;;10.04;74.27;101453.50;5079070;28;20036;-77
2022/05/31 02:59:29;;;;;;;4.25;3.50;;;;;;;10.04;74.30;101458.75;5079335;28;20170;-77
2022/05/31 03:01:55;;;;;;;4.68;3.33;;;;;;;10.03;74.45;101459.63;5078664;28;20029;-77
2022/05/31 03:04:20;;;;;;;4.13;3.83;;;;;;;10.02;74.39;101457.91;5044271;28;20123;-77
2022/05/31 03:06:46;;;;;;;4.35;3.92;;;;;;;10.01;74.50;101461.44;5073254;28;20036;-77
2022/05/31 03:09:11;;;;;;;4.05;3.75;;;;;;;10.00;74.49;101459.69;5058688;28;20282;-77
2022/05/31 03:11:55;;;;;;;4.05;3.75;;;;;;;9.98;74.44;101454.50;5061412;28;20074;-77
2022/05/31 03:14:23;;;;;;;4.10;3.80;;;;;;;9.98;74.67;101451.88;5078680;28;20110;-77
2022/05/31 03:17:02;;;;;;;3.93;3.63;;;;;;;9.98;74.46;101451.03;5079341;28;20309;-77
2022/05/31 03:19:32;;;;;;;3.90;3.60;;;;;;;9.96;74.77;101453.69;5060892;28;20623;-77
2022/05/31 03:22:04;;;;;;;4.07;3.78;;;;;;;9.96;74.49;101445.00;5078606;28;20024;-77
2022/05/31 03:24:42;;;;;;;3.67;3.47;;;;;;;9.95;74.62;101444.16;5060980;28;20024;-77
2022/05/31 03:27:11;;;;;;;4.20;3.90;;;;;;;9.94;74.73;101441.56;5078586;28;20046;-77
2022/05/31 03:29:42;;;;;;;4.45;3.88;;;;;;;9.94;74.67;101444.19;5078850;28;20048;-77
2022/05/31 03:32:09;;;;;;;4.88;4.03;;;;;;;9.94;75.08;101449.41;5078407;28;20043;-77
2022/05/31 03:34:36;;;;;;;4.38;3.97;;;;;;;9.94;74.67;101444.19;5078832;28;20324;-77
2022/05/31 03:37:01;;;;;;;4.40;4.10;;;;;;;9.93;74.78;101443.34;5078181;28;20075;-77
2022/05/31 03:39:27;;;;;;;4.40;4.00;;;;;;;9.93;74.91;101445.06;5078599;28;20045;-77
2022/05/31 03:41:52;;;;;;;4.57;4.18;;;;;;;9.93;74.79;101438.09;5060756;28;20325;-78
2022/05/31 03:44:17;;;;;;;4.63;4.22;;;;;;;9.93;74.75;101442.47;5071158;28;20032;-78
2022/05/31 03:46:43;;;;;;;4.65;4.35;;;;;;;9.93;74.86;101435.50;5077001;28;20044;-78
2022/05/31 03:49:09;;;;;;;4.57;4.18;;;;;;;9.93;74.88;101437.22;5055160;28;20360;-78
2022/05/31 03:51:34;;;;;;;5.18;4.82;;;;;;;9.93;75.10;101440.72;5057996;28;20044;-77
2022/05/31 03:53:59;;;;;;;5.57;5.07;;;;;;;9.94;75.08;101444.19;5058753;28;20292;-77
2022/05/31 03:56:25;;;;;;;5.43;5.00;;;;;;;9.93;75.19;101440.72;5076947;28;20257;-77
2022/05/31 03:58:50;;;;;;;6.18;5.10;;;;;;;9.93;75.16;101439.84;5058254;28;20366;-77
2022/05/31 04:01:15;;;;;;;5.25;4.75;;;;;;;9.93;74.97;101443.34;5058216;28;20074;-77
2022/05/31 04:03:42;;;;;;;7.43;5.13;;;;;;;9.92;74.96;101436.38;5075940;28;20044;-77
2022/05/31 04:06:08;;;;;;;5.47;4.97;;;;;;;9.94;75.13;101437.19;5076382;28;20375;-77
2022/05/31 04:08:33;;;;;;;5.20;4.80;;;;;;;9.93;74.93;101435.50;5042208;28;20045;-77
2022/05/31 04:10:59;;;;;;;5.15;4.72;;;;;;;9.94;75.25;101431.09;5076637;28;20051;-77
2022/05/31 04:13:25;;;;;;;5.70;5.20;;;;;;;9.94;75.32;101434.56;5075164;28;20271;-77
2022/05/31 04:16:11;;;;;;;5.57;5.07;;;;;;;9.95;75.35;101433.69;5075878;28;20031;-77
2022/05/31 04:18:38;;;;;;;5.47;4.97;;;;;;;9.94;75.03;101431.09;5058614;28;20033;-77
2022/05/31 04:21:07;;;;;;;5.55;5.05;;;;;;;9.95;75.07;101430.19;5076272;28;20397;-77
2022/05/31 04:26:17;;;;;;;5.18;4.78;;;;;;;9.96;75.14;101434.53;5069246;28;20243;-77
2022/05/31 04:28:43;;;;;;;5.50;5.00;;;;;;;9.95;75.32;101428.44;5058054;28;20028;-77
2022/05/31 04:31:09;;;;;;;5.45;5.00;;;;;;;9.95;75.39;101433.69;5076475;28;20063;-77
2022/05/31 04:33:35;;;;;;;5.15;4.75;;;;;;;9.96;75.43;101430.16;5075930;28;20032;-77
2022/05/31 04:36:04;;;;;;;6.25;5.65;;;;;;;9.98;75.75;101427.50;5076143;28;20236;-77
2022/05/31 04:38:29;;;;;;;5.22;4.78;;;;;;;9.97;75.74;101429.25;5076077;28;20040;-77
2022/05/31 04:40:55;;;;;;;5.82;4.97;;;;;;;9.97;75.71;101431.88;5076282;28;20255;-77
2022/05/31 04:43:20;;;;;;;5.35;4.88;;;;;;;10.00;76.11;101428.31;5075493;28;20047;-77
2022/05/31 04:45:46;;;;;;;5.43;5.03;;;;;;;9.99;76.16;101434.44;5075991;28;20135;-77
2022/05/31 04:48:12;;;;;;;4.95;4.65;;;;;;;10.01;76.16;101424.78;5075943;28;20040;-77
2022/05/31 04:50:37;;;;;;;6.25;5.75;;;;;;;10.01;76.23;101424.78;5057940;28;20055;-77
2022/05/31 04:53:03;;;;;;;5.63;5.22;;;;;;;10.02;76.58;101428.25;5049530;28;20043;-77
2022/05/31 04:55:29;;;;;;;5.72;5.25;;;;;;;10.04;76.79;101423.84;5065794;28;20044;-77
2022/05/31 04:57:54;;;;;;;6.30;5.30;;;;;;;10.04;77.10;101426.47;5075497;28;20382;-77
2022/05/31 05:00:20;;;;;;;6.57;5.72;;;;;;;10.04;77.07;101426.47;5075668;28;20033;-77
2022/05/31 05:02:46;;;;;;;7.00;6.35;;;;;;;10.04;77.57;101422.09;5075532;28;20283;-77
2022/05/31 05:05:11;;;;;;;6.63;6.03;;;;;;;10.05;77.69;101420.34;5059775;28;20135;-77
2022/05/31 05:07:37;;;;;;;7.00;6.30;;;;;;;10.06;77.81;101412.44;5080143;28;20390;-77
2022/05/31 05:10:05;;;;;;;6.45;5.55;;;;;;;10.07;78.08;101424.59;5062795;28;20075;-77
2022/05/31 05:12:30;;;;;;;8.93;7.05;;;;;;;10.07;78.30;101414.13;5084378;28;20036;-77
2022/05/31 05:14:56;;;;;;;6.05;5.65;;;;;;;10.08;78.39;101418.47;5082441;28;20133;-77
2022/05/31 05:17:25;;;;;;;6.78;6.28;;;;;;;10.09;78.62;101408.88;5063462;28;20069;-77
2022/05/31 05:19:50;;;;;;;7.13;6.53;;;;;;;10.09;78.65;101417.56;5084851;28;20087;-77
2022/05/31 05:22:15;;;;;;;6.60;6.10;;;;;;;10.11;79.04;101417.53;5064331;28;20252;-77
2022/05/31 05:24:41;;;;;;;7.78;6.95;;;;;;;10.13;79.28;101410.47;5064325;28;20044;-77
2022/05/31 05:27:07;;;;;;;7.40;6.80;;;;;;;10.12;79.54;101408.78;5083195;28;20040;-77
2022/05/31 05:32:16;;;;;;;10.43;7.15;;;;;;;10.12;80.73;101403.53;5072522;28;20415;-77
2022/05/31 05:34:41;;;;;;;8.13;7.43;;;;;;;10.11;80.69;101405.28;5083289;28;20044;-77
2022/05/31 05:37:07;;;;;;;7.55;6.72;;;;;;;10.13;80.88;101403.50;5064182;28;20299;-77
2022/05/31 05:39:33;;;;;;;8.85;7.28;;;;;;;10.16;80.68;101407.78;5061572;28;20067;-77
2022/05/31 05:41:58;;;;;;;7.70;6.90;;;;;;;10.17;80.61;101404.28;5082258;28;20330;-77
2022/05/31 05:44:25;;;;;;;8.93;8.02;;;;;;;10.17;80.91;101406.91;5085988;28;20032;-77
2022/05/31 05:46:50;;;;;;;8.07;7.38;;;;;;;10.18;81.35;101405.97;5058089;28;20036;-77
2022/05/31 05:49:16;;;;;;;10.02;7.97;;;;;;;10.19;81.26;101402.47;5062953;28;20052;-77
2022/05/31 05:51:43;;;;;;;8.90;8.10;;;;;;;10.21;81.27;101402.44;5061752;28;20032;-77
2022/05/31 05:54:08;;;;;;;9.65;8.65;;;;;;;10.22;81.49;101404.97;5062845;28;20044;-77
2022/05/31 05:56:34;;;;;;;9.40;8.50;;;;;;;10.26;81.71;101408.34;5061166;28;20051;-77
2022/05/31 05:58:59;;;;;;;9.75;8.07;;;;;;;10.26;82.19;101406.63;5061900;28;20036;-77
2022/05/31 06:01:28;;;;;;;11.70;8.85;;;;;;;10.29;81.89;101408.28;5074368;28;20032;-77
2022/05/31 06:04:11;;;;;;;10.40;9.38;;;;;;;10.27;82.61;101403.06;5074690;28;20036;-77
2022/05/31 06:06:41;;;;;;;9.23;7.78;;;;;;;10.31;82.19;101403.88;5073100;28;20037;-77
2022/05/31 06:09:13;;;;;;;10.70;7.88;;;;;;;10.32;82.78;101402.97;5056844;28;20426;-78
2022/05/31 06:11:47;;;;;;;9.85;8.93;;;;;;;10.35;82.28;101401.13;5074651;28;20048;-78
2022/05/31 06:14:29;;;;;;;8.02;7.32;;;;;;;10.39;82.12;101407.13;5072306;28;20235;-77
2022/05/31 06:17:04;;;;;;;8.27;7.40;;;;;;;10.41;82.05;101409.69;5075260;28;20100;-77
2022/05/31 06:19:34;;;;;;;8.32;7.63;;;;;;;10.43;81.88;101410.50;5068382;28;20064;-77
2022/05/31 06:22:02;;;;;;;8.02;6.43;;;;;;;10.45;81.37;101408.69;5064597;28;20036;-77
2022/05/31 06:24:30;;;;;;;7.57;5.82;;;;;;;10.46;81.13;101403.41;5063476;28;20202;-78
2022/05/31 06:26:55;;;;;;;8.57;7.77;;;;;;;10.48;80.73;101396.38;5043111;28;20029;-78
2022/05/31 06:29:20;;;;;;;6.68;6.18;;;;;;;10.51;80.48;101404.13;5050584;28;20615;-78
2022/05/31 06:31:46;;;;;;;8.23;6.18;;;;;;;10.52;80.68;101408.44;5072831;28;20044;-77
2022/05/31 06:34:12;;;;;;;6.60;6.00;;;;;;;10.55;80.52;101404.88;5068803;28;20052;-77
2022/05/31 06:36:39;;;;;;;6.00;5.50;;;;;;;10.56;80.31;101402.19;5074677;28;20414;-77
2022/05/31 06:39:04;;;;;;;7.35;6.45;;;;;;;10.59;80.37;101403.88;5078131;28;20086;-77
2022/05/31 06:41:31;;;;;;;5.72;5.28;;;;;;;10.60;80.37;101396.88;5060961;28;20087;-77
2022/05/31 06:43:57;;;;;;;8.00;6.30;;;;;;;10.63;80.33;101405.50;5060878;28;20021;-78
2022/05/31 06:46:23;;;;;;;11.05;7.30;;;;;;;10.65;80.19;101401.06;5077441;28;20036;-78
2022/05/31 06:48:48;;;;;;;9.27;7.40;;;;;;;10.68;80.40;101397.50;5080013;28;20221;-78
2022/05/31 06:56:48;;;;;;;11.13;7.90;;;;;;;10.71;80.97;101397.38;5059786;28;20036;-77
2022/05/31 06:56:49;;;;;;;11.18;8.00;;;;;;;10.80;80.84;101399.69;5078199;28;20086;-77
2022/05/31 06:59:15;;;;;;;7.93;6.95;;;;;;;10.85;80.63;101391.69;5077540;28;20475;-77
2022/05/31 07:01:40;;;;;;;7.45;5.93;;;;;;;10.89;80.53;101399.41;5060214;28;20032;-77
2022/05/31 07:04:06;;;;;;;10.38;6.88;;;;;;;10.93;80.41;101394.91;5081130;28;20114;-77
2022/05/31 07:06:32;;;;;;;7.63;6.78;;;;;;;10.97;79.90;101398.28;5059189;28;20448;-78
2022/05/31 07:08:59;;;;;;;9.00;6.10;;;;;;;11.01;80.04;101392.06;5080559;28;20237;-77
2022/05/31 07:11:25;;;;;;;7.45;5.63;;;;;;;11.04;79.77;101394.56;5078055;28;20372;-77
2022/05/31 07:13:50;;;;;;;6.63;5.38;;;;;;;11.05;79.24;101399.75;5076558;28;20139;-77
2022/05/31 07:16:16;;;;;;;13.20;7.28;;;;;;;11.06;79.72;101396.22;5046073;28;20032;-78
2022/05/31 07:18:42;;;;;;;9.00;6.30;;;;;;;11.11;79.82;101401.31;5076833;28;20040;-78
2022/05/31 07:21:08;;;;;;;6.18;5.57;;;;;;;11.14;79.77;101401.22;5076214;28;20491;-78
2022/05/31 07:23:34;;;;;;;8.20;5.93;;;;;;;11.16;79.85;101396.75;5078219;28;20103;-78
2022/05/31 07:26:00;;;;;;;12.07;6.35;;;;;;;11.20;79.62;101395.75;5075742;28;20040;-78
2022/05/31 07:28:28;;;;;;;9.80;5.47;;;;;;;11.23;79.16;101403.50;5056396;28;20040;-78
2022/05/31 07:30:54;;;;;;;6.10;5.50;;;;;;;11.26;79.03;101394.66;5081757;28;20256;-78
2022/05/31 07:33:20;;;;;;;7.70;5.68;;;;;;;11.30;78.65;101401.53;5065659;28;20040;-77
2022/05/31 07:35:45;;;;;;;6.32;4.82;;;;;;;11.32;78.84;101403.19;5076163;28;20039;-77
2022/05/31 07:38:11;;;;;;;7.63;5.90;;;;;;;11.36;78.82;101400.47;5057013;28;20044;-78
2022/05/31 07:40:37;;;;;;;7.90;6.53;;;;;;;11.41;78.67;101395.94;5061837;28;20040;-77
2022/05/31 07:43:02;;;;;;;8.30;7.13;;;;;;;11.45;77.67;101395.75;5069041;28;20344;-77
2022/05/31 07:45:28;;;;;;;6.18;5.57;;;;;;;11.52;78.06;101391.16;5065614;28;20393;-77
2022/05/31 07:47:54;;;;;;;12.15;5.97;;;;;;;11.57;77.97;101391.84;5075236;28;20044;-78
2022/05/31 07:50:20;;;;;;;8.52;5.97;;;;;;;11.63;77.46;101398.63;5072840;28;20044;-78
2022/05/31 07:52:45;;;;;;;7.30;6.30;;;;;;;11.68;77.40;101389.69;5042923;28;20036;-78
2022/05/31 07:55:11;;;;;;;7.35;6.20;;;;;;;11.77;76.35;101379.75;5076305;28;20067;-78
2022/05/31 08:00:22;;;;;;;9.00;6.00;;;;;;;11.92;75.69;101386.25;5079409;28;20050;-77
2022/05/31 08:02:47;;;;;;;7.43;5.97;;;;;;;11.94;76.03;101385.25;5058374;28;20064;-78
2022/05/31 08:05:13;;;;;;;6.50;5.85;;;;;;;11.99;75.76;101385.97;5077596;28;20039;-78
2022/05/31 08:07:39;;;;;;;13.82;6.80;;;;;;;12.09;75.17;101384.66;5071565;28;20032;-77
2022/05/31 08:10:05;;;;;;;6.88;6.28;;;;;;;12.16;74.81;101380.06;5038262;28;20040;-78
2022/05/31 08:12:30;;;;;;;7.70;5.30;;;;;;;12.23;73.19;101391.19;5081589;28;20048;-78
2022/05/31 08:14:56;;;;;;;7.97;5.65;;;;;;;12.28;72.82;101381.34;5067398;28;20240;-77
2022/05/31 08:17:21;;;;;;;9.23;6.03;;;;;;;12.33;73.14;101378.53;5077062;28;20135;-77
2022/05/31 08:19:46;;;;;;;6.78;5.00;;;;;;;12.36;72.97;101373.16;5074810;28;20036;-78
2022/05/31 08:22:12;;;;;;;5.68;5.18;;;;;;;12.41;73.26;101371.22;5075428;28;20102;-78
2022/05/31 08:24:37;;;;;;;5.47;4.75;;;;;;;12.44;73.51;101371.97;5075463;28;20051;-78
2022/05/31 08:27:04;;;;;;;6.80;5.57;;;;;;;12.48;73.77;101373.53;5061211;28;20052;-78
2022/05/31 08:29:30;;;;;;;5.22;4.72;;;;;;;12.54;73.19;101376.84;5074890;28;20320;-78
2022/05/31 08:31:58;;;;;;;20.95;5.05;;;;;;;12.59;72.16;101370.47;5057384;28;20036;-78
2022/05/31 08:34:25;;;;;;;4.13;3.78;;;;;;;12.63;71.58;101376.47;5067403;28;20150;-78
2022/05/31 08:36:51;;;;;;;4.70;3.38;;;;;;;12.68;71.09;101377.97;5081480;28;20332;-77
2022/05/31 08:39:16;;;;;;;4.97;3.03;;;;;;;12.72;70.76;101369.97;5077626;28;20040;-78
2022/05/31 08:41:51;;;;;;;5.38;3.20;;;;;;;12.76;65.63;101369.78;5078820;28;20032;-78
2022/05/31 08:44:28;;;;;;;3.22;2.70;;;;;;;12.80;65.69;101371.34;5081159;28;20024;-77
2022/05/31 08:47:12;;;;;;;3.05;2.75;;;;;;;12.84;66.64;101369.44;5082283;28;20336;-78
2022/05/31 08:53:26;;;;;;;4.55;2.85;;;;;;;12.99;67.08;101368.81;5073088;28;20122;-78
2022/05/31 08:58:55;;;;;;;5.07;3.08;;;;;;;13.13;65.67;101365.59;5075503;28;20036;-78
2022/05/31 09:01:26;;;;;;;5.22;3.25;;;;;;;13.17;66.28;101369.81;5072076;28;20036;-78
2022/05/31 09:03:56;;;;;;;3.22;2.92;;;;;;;13.22;65.93;101362.59;5076631;28;20259;-78
2022/05/31 09:06:27;;;;;;;5.18;3.05;;;;;;;13.28;65.24;101356.19;5058995;28;20051;-78
2022/05/31 09:09:10;;;;;;;4.47;3.30;;;;;;;13.33;64.59;101356.88;5067497;28;20028;-77
2022/05/31 09:11:39;;;;;;;5.30;3.40;;;;;;;13.37;65.40;101355.81;5077920;28;20036;-77
2022/05/31 09:14:26;;;;;;;4.95;3.17;;;;;;;13.42;65.31;101356.47;5057216;28;20115;-78
2022/05/31 09:17:02;;;;;;;4.45;3.67;;;;;;;13.43;64.63;101352.91;5074127;28;20067;-78
2022/05/31 09:20:08;;;;;;;3.53;3.22;;;;;;;13.49;64.28;101357.03;5072660;28;20378;-78
2022/05/31 09:22:35;;;;;;;5.40;3.47;;;;;;;13.51;60.34;101349.94;5079247;28;20036;-78
2022/05/31 09:25:02;;;;;;;4.38;3.25;;;;;;;13.59;60.96;101349.63;5064003;28;20405;-78
2022/05/31 09:27:40;;;;;;;7.53;3.60;;;;;;;13.66;63.01;101358.06;5079267;28;20150;-78
2022/05/31 09:30:18;;;;;;;5.57;2.97;;;;;;;13.78;62.18;101345.19;5078248;28;20044;-78
2022/05/31 09:33:08;;;;;;;4.75;2.90;;;;;;;13.95;63.11;101351.47;5077797;28;20054;-78
2022/05/31 09:35:45;;;;;;;4.40;2.88;;;;;;;14.04;61.15;101345.75;5075568;28;20091;-77
2022/05/31 09:38:30;;;;;;;5.43;2.60;;;;;;;14.07;61.68;101343.00;5078071;28;20031;-77
2022/05/31 09:41:07;;;;;;;5.47;2.35;;;;;;;14.06;58.48;101343.94;5081926;28;20028;-77
2022/05/31 09:43:50;;;;;;;6.65;2.85;;;;;;;14.04;59.27;101342.28;5061169;28;20353;-77
2022/05/31 09:46:30;;;;;;;3.58;2.97;;;;;;;14.05;60.95;101339.56;5061864;28;20032;-77
2022/05/31 09:48:58;;;;;;;8.10;2.75;;;;;;;14.13;61.87;101339.22;5063701;28;20039;-77
2022/05/31 09:51:36;;;;;;;5.00;2.60;;;;;;;14.19;62.05;101338.94;5070033;28;20032;-78
2022/05/31 09:59:32;;;;;;;5.07;2.60;;;;;;;14.33;59.07;101335.63;5083603;28;20070;-77
2022/05/31 10:02:17;;;;;;;3.60;1.80;;;;;;;14.33;59.92;101336.47;5078667;28;20040;-77
2022/05/31 10:04:43;;;;;;;4.43;2.55;;;;;;;14.33;58.73;101338.25;5078689;28;20032;-78
2022/05/31 10:07:08;;;;;;;2.10;2.00;;;;;;;14.31;59.37;101334.84;5057300;28;20047;-77
2022/05/31 10:09:41;;;;;;;42.13;2.92;;;;;;;14.29;59.04;101337.53;5075426;28;20112;-77
2022/05/31 10:12:10;;;;;;;3.90;2.20;;;;;;;14.27;59.78;101338.56;5078240;28;20252;-77
2022/05/31 10:14:38;;;;;;;2.53;1.83;;;;;;;14.25;60.53;101337.78;5078972;28;20040;-77
2022/05/31 10:17:33;;;;;;;3.50;1.92;;;;;;;14.21;60.78;101334.44;5077872;28;20029;-77
2022/05/31 10:20:13;;;;;;;2.15;1.40;;;;;;;14.16;59.01;101336.44;5073467;28;20032;-77
2022/05/31 10:22:59;;;;;;;4.28;1.55;;;;;;;14.13;59.58;101336.56;5067885;28;20051;-78
2022/05/31 10:25:33;;;;;;;3.10;1.48;;;;;;;14.09;59.69;101335.88;5065709;28;20364;-78
2022/05/31 10:28:01;;;;;;;2.95;1.52;;;;;;;14.06;60.68;101336.03;5084375;28;20031;-78
2022/05/31 10:30:28;;;;;;;3.58;1.45;;;;;;;14.03;61.04;101336.16;5084515;28;20412;-78
2022/05/31 10:33:10;;;;;;;3.80;1.95;;;;;;;14.01;60.86;101343.28;5080478;28;20078;-78
2022/05/31 10:35:40;;;;;;;4.93;2.13;;;;;;;13.98;60.21;101338.16;5079100;28;20028;-78
2022/05/31 10:38:17;;;;;;;3.55;1.77;;;;;;;13.95;58.81;101343.56;5079709;28;20077;-78
2022/05/31 10:41:04;;;;;;;6.78;1.98;;;;;;;13.94;58.74;101341.88;5077782;28;20378;-77
2022/05/31 10:43:43;;;;;;;3.35;1.65;;;;;;;13.89;56.90;101336.81;5079406;28;20092;-78
2022/05/31 10:46:23;;;;;;;3.20;2.10;;;;;;;13.86;58.09;101342.22;5078432;28;20040;-78
2022/05/31 10:48:51;;;;;;;2.13;1.60;;;;;;;13.83;59.11;101337.94;5083740;28;20336;-77
2022/05/31 10:51:23;;;;;;;2.22;1.73;;;;;;;13.80;58.77;101342.50;5075512;28;20048;-77
2022/05/31 10:54:05;;;;;;;5.97;1.73;;;;;;;13.79;59.61;101346.06;5078285;28;20346;-77
2022/05/31 10:56:45;;;;;;;3.58;1.70;;;;;;;13.76;60.14;101347.03;5077046;28;20351;-78
2022/05/31 10:59:17;;;;;;;3.58;2.10;;;;;;;13.74;59.58;101337.53;5072106;28;20070;-78
2022/05/31 11:02:03;;;;;;;1.83;1.73;;;;;;;13.71;61.65;101332.41;5081485;28;20032;-78
2022/05/31 11:05:06;;;;;;;4.55;2.20;;;;;;;13.68;61.00;101329.91;5084225;28;20213;-77
2022/05/31 11:07:43;;;;;;;8.68;2.28;;;;;;;13.69;61.29;101328.97;5063311;28;20044;-77
2022/05/31 11:13:44;;;;;;;3.08;2.30;;;;;;;13.77;60.18;101332.09;5039715;28;20052;-77
2022/05/31 11:16:15;;;;;;;4.70;2.10;;;;;;;13.86;59.03;101326.44;5080977;28;20150;-77
2022/05/31 11:19:01;;;;;;;2.88;2.20;;;;;;;13.88;59.22;101335.13;5083592;28;20032;-78
2022/05/31 11:21:50;;;;;;;2.33;2.10;;;;;;;13.89;59.22;101341.22;5087397;28;20063;-78
2022/05/31 11:24:46;;;;;;;2.30;2.10;;;;;;;13.91;57.63;101339.38;5079965;28;20028;-77
2022/05/31 11:27:21;;;;;;;2.03;1.70;;;;;;;13.94;58.39;101328.69;5084848;28;20032;-77
2022/05/31 11:29:52;;;;;;;2.38;2.00;;;;;;;13.93;57.33;101340.16;5077561;28;20228;-77
2022/05/31 11:32:59;;;;;;;3.92;2.08;;;;;;;13.95;57.81;101339.16;5082402;28;20036;-77
2022/05/31 11:35:55;;;;;;;2.47;2.20;;;;;;;13.95;59.19;101339.16;5078619;28;20044;-77
2022/05/31 11:38:40;;;;;;;2.85;2.00;;;;;;;13.98;58.81;101338.16;5083748;28;20036;-77
2022/05/31 11:41:20;;;;;;;3.60;1.85;;;;;;;13.99;57.85;101340.72;5076651;28;20040;-78
2022/05/31 11:44:27;;;;;;;4.03;2.22;;;;;;;14.01;57.41;101344.13;5081991;28;20032;-77
2022/05/31 11:47:30;;;;;;;1.98;1.70;;;;;;;14.05;58.31;101349.28;5083387;28;20063;-77
2022/05/31 11:50:01;;;;;;;4.50;1.80;;;;;;;14.06;61.92;101348.31;5027402;28;20442;-77
2022/05/31 11:53:03;;;;;;;2.78;1.90;;;;;;;14.05;58.65;101354.53;5063616;28;20035;-77
2022/05/31 11:55:48;;;;;;;5.15;2.20;;;;;;;14.02;58.33;101353.75;5079471;28;20233;-77
2022/05/31 11:58:19;;;;;;;3.58;2.10;;;;;;;14.05;63.13;101370.34;5079849;28;20281;-77
2022/05/31 12:00:55;;;;;;;5.90;2.35;;;;;;;13.99;61.07;101356.53;5062570;28;20032;-77
2022/05/31 12:03:38;;;;;;;4.10;2.50;;;;;;;13.99;62.42;101353.03;5078077;28;20036;-77
2022/05/31 12:06:16;;;;;;;4.00;2.60;;;;;;;13.99;61.11;101343.34;5066259;28;20040;-77
2022/05/31 12:08:49;;;;;;;2.25;2.15;;;;;;;14.01;62.42;101349.41;5080092;28;20040;-77
2022/05/31 12:11:22;;;;;;;3.70;2.63;;;;;;;14.04;62.16;101352.81;5083711;28;20386;-77
2022/05/31 12:13:49;;;;;;;4.13;2.75;;;;;;;14.05;62.45;101349.28;5081768;28;20114;-77
2022/05/31 12:16:15;;;;;;;3.28;2.58;;;;;;;14.05;62.55;101344.84;5077012;28;20247;-77